Aviation Digital Data Service (ADDS)

Output produced by METARs form (1318 UTC 08 May 2021)
found at http://aviationweather.gov/metar/data/
 
METAR text: KPGV 081315Z AUTO 24009KT 10SM CLR 15/09 A3004 RMK AO2
Conditions at: KPGV (PITT GREENVILLE , NC, US) observed 1315 UTC 08 May 2021
Temperature: 15.0°C (59°F)
Dewpoint: 9.0°C (48°F) [RH = 67%]
Pressure (altimeter): 30.04 inches Hg (1017.4 mb)
Winds: from the WSW (240 degrees) at 10 MPH (9 knots; 4.6 m/s)
Visibility: 10 or more miles (16+ km)
Ceiling: at least 12,000 feet AGL
Clouds: sky clear below 12,000 feet AGL
Weather: automated observation with no human augmentation;
there may or may not be significant weather present at this time

METAR text: KPGV 081255Z AUTO 25005KT 10SM CLR 13/08 A3004 RMK AO2
Conditions at: KPGV (PITT GREENVILLE , NC, US) observed 1255 UTC 08 May 2021
Temperature: 13.0°C (55°F)
Dewpoint: 8.0°C (46°F) [RH = 72%]
Pressure (altimeter): 30.04 inches Hg (1017.4 mb)
Winds: from the WSW (250 degrees) at 6 MPH (5 knots; 2.6 m/s)
Visibility: 10 or more miles (16+ km)
Ceiling: at least 12,000 feet AGL
Clouds: sky clear below 12,000 feet AGL
Weather: automated observation with no human augmentation;
there may or may not be significant weather present at this time

METAR text: KPGV 081235Z AUTO 25007KT 10SM CLR 13/08 A3003 RMK AO2
Conditions at: KPGV (PITT GREENVILLE , NC, US) observed 1235 UTC 08 May 2021
Temperature: 13.0°C (55°F)
Dewpoint: 8.0°C (46°F) [RH = 72%]
Pressure (altimeter): 30.03 inches Hg (1017.0 mb)
Winds: from the WSW (250 degrees) at 8 MPH (7 knots; 3.6 m/s)
Visibility: 10 or more miles (16+ km)
Ceiling: at least 12,000 feet AGL
Clouds: sky clear below 12,000 feet AGL
Weather: automated observation with no human augmentation;
there may or may not be significant weather present at this time

METAR text: KPGV 081215Z AUTO 24007KT 10SM CLR 12/08 A3003 RMK AO2
Conditions at: KPGV (PITT GREENVILLE , NC, US) observed 1215 UTC 08 May 2021
Temperature: 12.0°C (54°F)
Dewpoint: 8.0°C (46°F) [RH = 76%]
Pressure (altimeter): 30.03 inches Hg (1017.0 mb)
Winds: from the WSW (240 degrees) at 8 MPH (7 knots; 3.6 m/s)
Visibility: 10 or more miles (16+ km)
Ceiling: at least 12,000 feet AGL
Clouds: sky clear below 12,000 feet AGL
Weather: automated observation with no human augmentation;
there may or may not be significant weather present at this time

METAR text: KPGV 081155Z AUTO 24007KT 10SM CLR 12/08 A3003 RMK AO2
Conditions at: KPGV (PITT GREENVILLE , NC, US) observed 1155 UTC 08 May 2021
Temperature: 12.0°C (54°F)
Dewpoint: 8.0°C (46°F) [RH = 76%]
Pressure (altimeter): 30.03 inches Hg (1017.0 mb)
Winds: from the WSW (240 degrees) at 8 MPH (7 knots; 3.6 m/s)
Visibility: 10 or more miles (16+ km)
Ceiling: at least 12,000 feet AGL
Clouds: sky clear below 12,000 feet AGL
Weather: automated observation with no human augmentation;
there may or may not be significant weather present at this time

METAR text: KPGV 081135Z AUTO 24005KT 10SM CLR 11/07 A3002 RMK AO2
Conditions at: KPGV (PITT GREENVILLE , NC, US) observed 1135 UTC 08 May 2021
Temperature: 11.0°C (52°F)
Dewpoint: 7.0°C (45°F) [RH = 76%]
Pressure (altimeter): 30.02 inches Hg (1016.7 mb)
Winds: from the WSW (240 degrees) at 6 MPH (5 knots; 2.6 m/s)
Visibility: 10 or more miles (16+ km)
Ceiling: at least 12,000 feet AGL
Clouds: sky clear below 12,000 feet AGL
Weather: automated observation with no human augmentation;
there may or may not be significant weather present at this time

Forecast for: KPGV (PITT GREENVILLE , NC, US)
Text: KPGV 081121Z 0812/0912 24010KT P6SM SCT120
Forecast period: 1200 to 1400 UTC 08 May 2021
Forecast type: FROM: standard forecast or significant change
Winds: from the WSW (240 degrees) at 12 MPH (10 knots; 5.1 m/s)
Visibility: 6 or more miles (10+ km)
Ceiling: at least 12,000 feet AGL
Clouds: scattered clouds at 12000 feet AGL
Weather: no significant weather forecast for this period
Text: FM081400 28013G23KT P6SM FEW070
Forecast period: 1400 to 2300 UTC 08 May 2021
Forecast type: FROM: standard forecast or significant change
Winds: from the W (280 degrees) at 15 MPH (13 knots; 6.7 m/s)
gusting to 26 MPH (23 knots; 11.8 m/s)
Visibility: 6 or more miles (10+ km)
Ceiling: at least 12,000 feet AGL
Clouds: few clouds at 7000 feet AGL
Weather: no significant weather forecast for this period
Text: FM082300 VRB03KT P6SM SCT120 AMD LTD TO CLD VIS AND WIND
Forecast period: 2300 UTC 08 May 2021 to 1200 UTC 09 May 2021
Forecast type: FROM: standard forecast or significant change
Winds: variable direction winds at 3 MPH (3 knots; 1.5 m/s)
Visibility: 6 or more miles (10+ km)
Ceiling: at least 12,000 feet AGL
Clouds: scattered clouds at 12000 feet AGL
Weather: no significant weather forecast for this period